Time,TemperatureF,DewpointF,PressureIn,WindDirection,WindDirectionDegrees,WindSpeedMPH,WindSpeedGustMPH,Humidity,HourlyPrecipIn,Conditions,Clouds,dailyrainin,SoftwareType,DateUTC
2013-01-29 00:03:00,19.0,17.0,30.01,NNW,327,0.0,0.0,90,0.00,,,0.00,,2013-01-29 05:03:00,
2013-01-29 00:12:00,19.0,17.0,30.01,NNW,327,0.0,0.0,90,0.00,,,0.00,,2013-01-29 05:12:00,
2013-01-29 00:32:00,19.0,17.0,30.01,NNW,327,0.0,0.0,90,0.00,,,0.00,,2013-01-29 05:32:00,
2013-01-29 00:43:00,19.0,17.0,30.01,NNW,327,0.0,0.0,90,0.00,,,0.00,,2013-01-29 05:43:00,
2013-01-29 00:52:00,19.0,17.0,30.01,NNW,327,327.0,327.0,90,-99.99,,,-99.99,,2013-01-29 05:52:00,
2013-01-29 01:02:00,19.0,17.0,30.01,NNW,327,327.0,327.0,90,-99.99,,,-99.99,,2013-01-29 06:02:00,
2013-01-29 01:11:00,19.0,17.0,30.01,NNW,327,327.0,327.0,90,-99.99,,,-99.99,,2013-01-29 06:11:00,
2013-01-29 01:21:00,19.0,17.0,30.01,NNW,327,0.0,0.0,90,0.00,,,0.00,,2013-01-29 06:21:00,
2013-01-29 01:32:00,19.0,17.0,30.02,NNW,327,0.0,0.0,90,0.00,,,0.00,,2013-01-29 06:32:00,
2013-01-29 01:42:00,19.0,17.0,30.02,NNW,327,0.0,0.0,90,0.00,,,0.00,,2013-01-29 06:42:00,
2013-01-29 01:52:00,19.0,17.0,30.02,NNW,327,0.0,0.0,90,0.00,,,0.00,,2013-01-29 06:52:00,
2013-01-29 02:01:00,19.0,17.0,30.01,NNW,327,0.0,0.0,90,0.00,,,0.00,,2013-01-29 07:01:00,
2013-01-29 02:11:00,19.0,17.0,30.01,NNW,327,0.0,0.0,90,0.00,,,0.00,,2013-01-29 07:11:00,
2013-01-29 02:21:00,19.0,17.0,30.02,NNW,327,0.0,0.0,90,0.00,,,0.00,,2013-01-29 07:21:00,
2013-01-29 02:32:00,19.0,17.0,30.02,NNW,327,327.0,327.0,90,-99.99,,,-99.99,,2013-01-29 07:32:00,
2013-01-29 02:42:00,19.0,17.0,30.02,NNW,327,327.0,327.0,90,-99.99,,,-99.99,,2013-01-29 07:42:00,
2013-01-29 02:52:00,19.0,17.0,30.02,NNW,327,327.0,327.0,90,-99.99,,,-99.99,,2013-01-29 07:52:00,
2013-01-29 03:02:00,19.0,17.0,30.03,NNW,327,0.0,0.0,90,0.00,,,0.00,,2013-01-29 08:02:00,
2013-01-29 03:11:00,19.0,17.0,30.03,NNW,327,0.0,0.0,90,0.00,,,0.00,,2013-01-29 08:11:00,
2013-01-29 03:21:00,19.0,17.0,30.03,NNW,327,0.0,0.0,90,0.00,,,0.00,,2013-01-29 08:21:00,
2013-01-29 03:32:00,19.0,17.0,30.03,NNW,327,0.0,0.0,90,0.00,,,0.00,,2013-01-29 08:32:00,
2013-01-29 03:42:00,19.0,17.0,30.03,NNW,327,0.0,0.0,90,0.00,,,0.00,,2013-01-29 08:42:00,
2013-01-29 03:52:00,19.0,17.0,30.02,NNW,327,327.0,327.0,90,-99.99,,,-99.99,,2013-01-29 08:52:00,
2013-01-29 04:02:00,17.0,15.0,30.03,NNW,327,327.0,327.0,90,-99.99,,,-99.99,,2013-01-29 09:02:00,
2013-01-29 04:11:00,17.0,15.0,30.03,NNW,327,327.0,327.0,90,-99.99,,,-99.99,,2013-01-29 09:11:00,
2013-01-29 04:21:00,15.0,13.0,30.03,NNW,327,0.0,0.0,90,0.00,,,0.00,,2013-01-29 09:21:00,
2013-01-29 04:32:00,14.0,12.0,30.04,NNW,327,0.0,0.0,90,0.00,,,0.00,,2013-01-29 09:32:00,
2013-01-29 04:42:00,14.0,12.0,30.04,NNW,327,0.0,0.0,90,0.00,,,0.00,,2013-01-29 09:42:00,
2013-01-29 04:52:00,14.0,12.0,30.04,NNW,327,0.0,0.0,90,0.00,,,0.00,,2013-01-29 09:52:00,
2013-01-29 05:01:00,13.0,10.0,30.04,NNW,327,0.0,0.0,89,0.00,,,0.00,,2013-01-29 10:01:00,
2013-01-29 05:11:00,13.0,10.0,30.04,NNW,327,0.0,0.0,89,0.00,,,0.00,,2013-01-29 10:11:00,
2013-01-29 05:21:00,12.0,9.0,30.04,NNW,327,0.0,0.0,89,0.00,,,0.00,,2013-01-29 10:21:00,
2013-01-29 05:32:00,11.0,8.0,30.05,NNW,327,0.0,0.0,89,0.00,,,0.00,,2013-01-29 10:32:00,
2013-01-29 05:42:00,11.0,8.0,30.05,NNW,327,0.0,0.0,89,0.00,,,0.00,,2013-01-29 10:42:00,
2013-01-29 05:52:00,10.0,7.0,30.05,NNW,327,327.0,327.0,89,-99.99,,,-99.99,,2013-01-29 10:52:00,
2013-01-29 06:02:00,10.0,7.0,30.06,NNW,327,0.0,0.0,89,0.00,,,0.00,,2013-01-29 11:02:00,
2013-01-29 06:11:00,10.0,7.0,30.06,NNW,327,0.0,0.0,89,0.00,,,0.00,,2013-01-29 11:11:00,
2013-01-29 06:22:00,9.0,6.0,30.06,NNW,327,0.0,0.0,89,0.00,,,0.00,,2013-01-29 11:22:00,
2013-01-29 06:32:00,8.0,5.0,30.07,NNW,327,0.0,0.0,89,0.00,,,0.00,,2013-01-29 11:32:00,
2013-01-29 06:42:00,8.0,5.0,30.07,NNW,327,0.0,0.0,89,0.00,,,0.00,,2013-01-29 11:42:00,
2013-01-29 06:53:00,8.0,5.0,30.07,NNW,327,0.0,1.0,89,0.00,,,0.00,,2013-01-29 11:53:00,
2013-01-29 07:02:00,8.0,5.0,30.08,NNW,327,0.0,0.0,89,0.00,,,0.00,,2013-01-29 12:02:00,
2013-01-29 07:12:00,8.0,5.0,30.08,NNW,327,0.0,0.0,89,0.00,,,0.00,,2013-01-29 12:12:00,
2013-01-29 07:22:00,8.0,5.0,30.07,NNW,327,327.0,327.0,89,-99.99,,,-99.99,,2013-01-29 12:22:00,
2013-01-29 07:33:00,7.0,4.0,30.07,NNW,327,0.0,0.0,89,0.00,,,0.00,,2013-01-29 12:33:00,
2013-01-29 07:43:00,7.0,4.0,30.07,NNW,327,0.0,0.0,89,0.00,,,0.00,,2013-01-29 12:43:00,
2013-01-29 07:53:00,8.0,5.0,30.08,NNW,327,0.0,1.0,89,0.00,,,0.00,,2013-01-29 12:53:00,
2013-01-29 08:02:00,9.0,6.0,30.09,NNW,327,0.0,0.0,89,0.00,,,0.00,,2013-01-29 13:02:00,
2013-01-29 08:12:00,9.0,6.0,30.09,NNW,327,0.0,0.0,89,0.00,,,0.00,,2013-01-29 13:12:00,
2013-01-29 08:22:00,9.0,6.0,30.10,NNW,327,0.0,0.0,89,0.00,,,0.00,,2013-01-29 13:22:00,
2013-01-29 08:32:00,9.0,6.0,30.10,NNW,327,0.0,0.0,89,0.00,,,0.00,,2013-01-29 13:32:00,
2013-01-29 08:42:00,9.0,6.0,30.10,NNW,327,0.0,0.0,89,0.00,,,0.00,,2013-01-29 13:42:00,
2013-01-29 08:52:00,10.0,7.0,30.11,NNW,327,0.0,0.0,89,0.00,,,0.00,,2013-01-29 13:52:00,
2013-01-29 09:02:00,11.0,8.0,30.12,NNW,327,0.0,0.0,89,0.00,,,0.00,,2013-01-29 14:02:00,
2013-01-29 09:12:00,13.0,11.0,30.13,NNW,327,0.0,0.0,90,0.00,,,0.00,,2013-01-29 14:12:00,
2013-01-29 09:22:00,13.0,11.0,30.13,NNW,327,0.0,0.0,90,0.00,,,0.00,,2013-01-29 14:22:00,
2013-01-29 09:33:00,16.0,14.0,30.13,NNW,327,0.0,0.0,90,0.00,,,0.00,,2013-01-29 14:33:00,
2013-01-29 09:43:00,16.0,14.0,30.13,NNW,327,0.0,0.0,90,0.00,,,0.00,,2013-01-29 14:43:00,
2013-01-29 09:53:00,18.0,16.0,30.14,NNW,327,0.0,1.0,91,0.00,,,0.00,,2013-01-29 14:53:00,
2013-01-29 10:02:00,19.0,17.0,30.14,North,5,0.0,0.0,90,0.00,,,0.00,,2013-01-29 15:02:00,
2013-01-29 10:12:00,19.0,17.0,30.14,North,5,0.0,0.0,90,0.00,,,0.00,,2013-01-29 15:12:00,
2013-01-29 10:22:00,20.0,18.0,30.14,North,5,327.0,327.0,90,-99.99,,,-99.99,,2013-01-29 15:22:00,
2013-01-29 10:33:00,22.0,19.0,30.14,North,5,0.0,1.0,89,0.00,,,0.00,,2013-01-29 15:33:00,
2013-01-29 10:43:00,22.0,19.0,30.14,North,5,0.0,1.0,89,0.00,,,0.00,,2013-01-29 15:43:00,
2013-01-29 10:53:00,23.0,20.0,30.14,North,5,0.0,1.0,88,0.00,,,0.00,,2013-01-29 15:53:00,
2013-01-29 11:03:00,25.0,22.0,30.14,North,5,0.0,1.0,87,0.00,,,0.00,,2013-01-29 16:03:00,
2013-01-29 11:12:00,25.0,22.0,30.14,North,5,0.0,1.0,87,0.00,,,0.00,,2013-01-29 16:12:00,
2013-01-29 11:23:00,26.0,22.0,30.13,North,5,0.0,1.0,86,0.00,,,0.00,,2013-01-29 16:23:00,
2013-01-29 11:32:00,26.0,22.0,30.13,North,5,0.0,1.0,86,0.00,,,0.00,,2013-01-29 16:32:00,
2013-01-29 11:43:00,26.0,22.0,30.13,North,5,0.0,1.0,86,0.00,,,0.00,,2013-01-29 16:43:00,
2013-01-29 11:53:00,28.0,24.0,30.13,SSW,208,327.0,327.0,85,-99.99,,,-99.99,,2013-01-29 16:53:00,
2013-01-29 12:03:00,29.0,25.0,30.14,NW,321,1.0,5.0,84,0.03,,,0.03,,2013-01-29 17:03:00,
2013-01-29 12:12:00,29.0,25.0,30.14,NW,321,1.0,5.0,84,0.03,,,0.03,,2013-01-29 17:12:00,
2013-01-29 12:22:00,30.0,25.0,30.14,ENE,70,2.0,6.0,82,0.04,,,0.04,,2013-01-29 17:22:00,
2013-01-29 12:33:00,30.0,24.0,30.12,WNW,296,1.0,6.0,79,0.05,,,0.05,,2013-01-29 17:33:00,
2013-01-29 12:42:00,30.0,24.0,30.12,WNW,296,1.0,6.0,79,0.05,,,0.05,,2013-01-29 17:42:00,
2013-01-29 12:52:00,30.0,24.0,30.11,South,190,1.0,7.0,77,0.04,,,0.06,,2013-01-29 17:52:00,
2013-01-29 13:04:00,30.0,24.0,30.11,South,177,1.0,3.0,77,0.04,,,0.07,,2013-01-29 18:04:00,
2013-01-29 13:12:00,30.0,24.0,30.11,South,177,1.0,3.0,77,0.04,,,0.07,,2013-01-29 18:12:00,
2013-01-29 13:22:00,31.0,24.0,30.11,South,177,1.0,3.0,76,0.04,,,0.08,,2013-01-29 18:22:00,
2013-01-29 13:33:00,31.0,24.0,30.11,SW,236,0.0,2.0,75,0.04,,,0.09,,2013-01-29 18:33:00,
2013-01-29 13:42:00,31.0,24.0,30.11,SW,236,0.0,2.0,75,0.04,,,0.09,,2013-01-29 18:42:00,
2013-01-29 13:52:00,31.0,24.0,30.11,SW,214,0.0,2.0,76,0.04,,,0.10,,2013-01-29 18:52:00,
2013-01-29 14:03:00,31.0,26.0,30.10,East,94,1.0,3.0,80,0.04,,,0.11,,2013-01-29 19:03:00,
2013-01-29 14:12:00,31.0,26.0,30.10,East,94,1.0,3.0,80,0.04,,,0.11,,2013-01-29 19:12:00,
2013-01-29 14:23:00,31.0,26.0,30.09,East,94,327.0,327.0,82,-99.99,,,-99.99,,2013-01-29 19:23:00,
2013-01-29 14:33:00,31.0,26.0,30.09,East,94,0.0,1.0,81,0.04,,,0.12,,2013-01-29 19:33:00,
2013-01-29 14:42:00,31.0,26.0,30.09,East,94,0.0,1.0,81,0.04,,,0.12,,2013-01-29 19:42:00,
2013-01-29 14:52:00,32.0,27.0,30.09,East,96,327.0,327.0,80,-99.99,,,-99.99,,2013-01-29 19:52:00,
2013-01-29 15:02:00,31.0,26.0,30.09,SSW,202,0.0,0.0,82,0.02,,,0.13,,2013-01-29 20:02:00,
2013-01-29 15:13:00,31.0,26.0,30.09,SSW,202,0.0,0.0,82,0.02,,,0.13,,2013-01-29 20:13:00,
2013-01-29 15:22:00,32.0,27.0,30.10,SSW,202,0.0,1.0,83,0.01,,,0.13,,2013-01-29 20:22:00,
2013-01-29 15:33:00,32.0,28.0,30.10,SSW,202,0.0,0.0,84,0.02,,,0.14,,2013-01-29 20:33:00,
2013-01-29 15:42:00,32.0,28.0,30.10,SSW,202,0.0,0.0,84,0.02,,,0.14,,2013-01-29 20:42:00,
2013-01-29 15:53:00,32.0,28.0,30.10,SSW,202,0.0,1.0,84,0.01,,,0.14,,2013-01-29 20:53:00,
2013-01-29 16:03:00,31.0,26.0,30.11,West,272,0.0,3.0,82,0.01,,,0.14,,2013-01-29 21:03:00,
2013-01-29 16:12:00,31.0,26.0,30.11,West,272,0.0,3.0,82,0.01,,,0.14,,2013-01-29 21:12:00,
2013-01-29 16:22:00,31.0,27.0,30.11,West,272,0.0,1.0,85,0.01,,,0.14,,2013-01-29 21:22:00,
2013-01-29 16:33:00,30.0,26.0,30.11,East,101,0.0,0.0,86,0.00,,,0.14,,2013-01-29 21:33:00,
2013-01-29 16:42:00,30.0,26.0,30.11,East,101,0.0,0.0,86,0.00,,,0.14,,2013-01-29 21:42:00,
2013-01-29 16:53:00,30.0,27.0,30.11,East,101,0.0,0.0,88,0.00,,,0.14,,2013-01-29 21:53:00,
2013-01-29 17:03:00,29.0,26.0,30.12,East,101,0.0,0.0,88,0.00,,,0.14,,2013-01-29 22:03:00,
2013-01-29 17:12:00,29.0,26.0,30.12,East,101,0.0,0.0,88,0.00,,,0.14,,2013-01-29 22:12:00,
2013-01-29 17:22:00,29.0,26.0,30.12,East,101,327.0,327.0,89,-99.99,,,-99.99,,2013-01-29 22:22:00,
2013-01-29 17:33:00,29.0,26.0,30.13,East,101,0.0,0.0,90,0.00,,,0.14,,2013-01-29 22:33:00,
2013-01-29 17:42:00,29.0,26.0,30.13,East,101,0.0,0.0,90,0.00,,,0.14,,2013-01-29 22:42:00,
2013-01-29 17:53:00,29.0,26.0,30.13,East,101,0.0,0.0,90,0.00,,,0.14,,2013-01-29 22:53:00,
2013-01-29 18:02:00,29.0,26.0,30.14,East,101,0.0,0.0,90,0.00,,,0.14,,2013-01-29 23:02:00,
2013-01-29 18:12:00,29.0,26.0,30.14,East,101,0.0,0.0,90,0.00,,,0.14,,2013-01-29 23:12:00,
2013-01-29 18:23:00,29.0,26.0,30.14,East,101,327.0,327.0,90,-99.99,,,-99.99,,2013-01-29 23:23:00,
2013-01-29 18:33:00,29.0,27.0,30.14,East,101,0.0,0.0,91,0.00,,,0.14,,2013-01-29 23:33:00,
2013-01-29 18:42:00,29.0,27.0,30.14,East,101,0.0,0.0,91,0.00,,,0.14,,2013-01-29 23:42:00,
2013-01-29 18:53:00,29.0,27.0,30.14,East,101,0.0,0.0,91,0.00,,,0.14,,2013-01-29 23:53:00,
2013-01-29 19:03:00,29.0,27.0,30.13,East,101,0.0,0.0,91,0.00,,,0.14,,2013-01-30 00:03:00,
2013-01-29 19:12:00,29.0,27.0,30.13,East,101,0.0,0.0,91,0.00,,,0.14,,2013-01-30 00:12:00,
2013-01-29 19:22:00,29.0,27.0,30.13,East,101,0.0,0.0,91,0.00,,,0.14,,2013-01-30 00:22:00,
2013-01-29 19:32:00,29.0,27.0,30.13,East,101,0.0,0.0,91,0.00,,,0.14,,2013-01-30 00:32:00,
2013-01-29 19:43:00,29.0,27.0,30.13,East,101,0.0,0.0,91,0.00,,,0.14,,2013-01-30 00:43:00,
2013-01-29 19:53:00,29.0,27.0,30.13,East,101,0.0,0.0,92,0.00,,,0.14,,2013-01-30 00:53:00,
2013-01-29 20:02:00,29.0,27.0,30.13,East,101,0.0,0.0,92,0.00,,,0.14,,2013-01-30 01:02:00,
2013-01-29 20:12:00,29.0,27.0,30.13,East,101,0.0,0.0,92,0.00,,,0.14,,2013-01-30 01:12:00,
2013-01-29 20:22:00,29.0,27.0,30.13,East,101,0.0,0.0,92,0.00,,,0.14,,2013-01-30 01:22:00,
2013-01-29 20:32:00,29.0,27.0,30.13,East,101,0.0,0.0,92,0.00,,,0.14,,2013-01-30 01:32:00,
2013-01-29 20:42:00,29.0,27.0,30.13,East,101,0.0,0.0,92,0.00,,,0.14,,2013-01-30 01:42:00,
2013-01-29 20:52:00,29.0,27.0,30.13,East,101,0.0,0.0,92,0.00,,,0.14,,2013-01-30 01:52:00,
2013-01-29 21:02:00,29.0,27.0,30.12,East,101,0.0,0.0,92,0.00,,,0.14,,2013-01-30 02:02:00,
2013-01-29 21:12:00,29.0,27.0,30.12,East,101,0.0,0.0,92,0.00,,,0.14,,2013-01-30 02:12:00,
2013-01-29 21:22:00,29.0,27.0,30.12,East,101,0.0,0.0,92,0.00,,,0.14,,2013-01-30 02:22:00,
2013-01-29 21:33:00,29.0,27.0,30.12,East,101,0.0,0.0,92,0.00,,,0.14,,2013-01-30 02:33:00,
2013-01-29 21:42:00,29.0,27.0,30.12,East,101,0.0,0.0,92,0.00,,,0.14,,2013-01-30 02:42:00,
2013-01-29 21:52:00,29.0,27.0,30.12,East,101,0.0,0.0,92,0.00,,,0.14,,2013-01-30 02:52:00,
2013-01-29 22:03:00,29.0,27.0,30.12,East,101,0.0,0.0,92,0.00,,,0.14,,2013-01-30 03:03:00,
2013-01-29 22:12:00,29.0,27.0,30.12,East,101,0.0,0.0,92,0.00,,,0.14,,2013-01-30 03:12:00,
2013-01-29 22:22:00,30.0,28.0,30.12,East,101,0.0,0.0,93,0.00,,,0.14,,2013-01-30 03:22:00,
2013-01-29 22:32:00,30.0,28.0,30.11,East,101,0.0,0.0,93,0.00,,,0.14,,2013-01-30 03:32:00,
2013-01-29 22:42:00,30.0,28.0,30.11,East,101,0.0,0.0,93,0.00,,,0.14,,2013-01-30 03:42:00,
2013-01-29 22:52:00,30.0,28.0,30.10,East,101,0.0,0.0,93,0.00,,,0.14,,2013-01-30 03:52:00,
2013-01-29 23:02:00,30.0,28.0,30.10,East,101,0.0,0.0,93,0.00,,,0.14,,2013-01-30 04:02:00,
2013-01-29 23:12:00,30.0,28.0,30.10,East,101,0.0,0.0,93,0.00,,,0.14,,2013-01-30 04:12:00,
2013-01-29 23:22:00,30.0,28.0,30.10,East,101,0.0,0.0,94,0.00,,,0.14,,2013-01-30 04:22:00,
2013-01-29 23:32:00,30.0,28.0,30.10,East,101,327.0,327.0,94,-99.99,,,-99.99,,2013-01-30 04:32:00,
2013-01-29 23:42:00,30.0,28.0,30.10,East,101,327.0,327.0,94,-99.99,,,-99.99,,2013-01-30 04:42:00,
2013-01-29 23:52:00,30.0,28.0,30.09,East,101,0.0,0.0,94,0.00,,,0.14,,2013-01-30 04:52:00,